カイロ の空港の天気 - METARとTAF

カイロ国際空港 ( HECA / CAI ) - エジプト [カイロ
飛行場実況気象(Metar)
観測時間10/16 08:00 EET (10/16 06:00 UTC)
風向・風速北北東 3m/s
視程3000m
天気現象煙霧
なし
気温23℃
湿度65%
気圧1017hPa
METARHECA 160600Z 03005KT 3000 HZ NSC 23/16 Q1017 NOSIG
過去の天気等 Google飛行場航空写真 Wunderground天気予報

過去48時間のMETAR

飛行場予報(TAF)
発表時間: 10/16 07:00 EET (10/16 05:00 UTC)
予報対象時間: 16日8時 EET ~ 17日14時 EET
風向・風速北東 4m/s
視程6000m
なし
16日8時 EET ~ 16日10時 EET に一時的に
16日11時 EET ~ 16日13時 EET に徐々に
風向・風速北 5m/s
視程10km以上
少しの雲 雲底高度 760m
TAF HECA 160500Z 1606/1712 05008KT 6000 NSC
TEMPO 1606/1608 2000HZ
BECMG 1609/1611 35010KT 9999 FEW025